Time;durP1;ratioP1;P1;durP2;ratioP2;P2;SDS_P1;SDS_P2;PMS_P1;PMS_P2;Temp;Humidity;BMP_temperature;BMP_pressure;BME280_temperature;BME280_humidity;BME280_pressure;Samples;Min_cycle;Max_cycle;Signal;HPM_P1;HPM_P2
2021/03/29 00:02:23;;;;;;;2.72;1.75;;;;;;;;;;5128734;27;20027;-68
2021/03/29 00:04:49;;;;;;;1.42;1.33;;;;;;;;;;5128462;27;20027;-68
2021/03/29 00:07:16;;;;;;;2.38;1.42;;;;;;;;;;5128313;27;20034;-68
2021/03/29 00:09:44;;;;;;;1.52;1.42;;;;;;;;;;5129572;27;20035;-68
2021/03/29 00:12:11;;;;;;;4.13;2.00;;;;;;;;;;5127802;27;20501;-68
2021/03/29 00:14:37;;;;;;;2.13;1.65;;;;;;;;;;5129104;27;20143;-68
2021/03/29 00:17:03;;;;;;;2.03;1.90;;;;;;;;;;5107234;28;20035;-68
2021/03/29 00:19:31;;;;;;;3.35;2.63;;;;;;;;;;5108352;28;20028;-68
2021/03/29 00:21:57;;;;;;;1.27;1.17;;;;;;;;;;5106947;28;20035;-68
2021/03/29 00:24:23;;;;;;;1.75;1.33;;;;;;;;;;5107690;28;20027;-68
2021/03/29 00:26:50;;;;;;;2.65;1.50;;;;;;;;;;5108511;28;20050;-68
2021/03/29 00:29:16;;;;;;;1.67;1.58;;;;;;;;;;5107068;28;20371;-68
2021/03/29 00:31:43;;;;;;;2.05;1.85;;;;;;;;;;5107584;28;20060;-68
2021/03/29 00:34:09;;;;;;;1.75;1.40;;;;;;;;;;5107227;28;20394;-68
2021/03/29 00:36:35;;;;;;;1.38;1.27;;;;;;;;;;5108666;28;20068;-68
2021/03/29 00:39:01;;;;;;;2.45;1.48;;;;;;;;;;5107336;28;20042;-68
2021/03/29 00:41:27;;;;;;;2.45;2.00;;;;;;;;;;5107185;28;20023;-68
2021/03/29 00:43:54;;;;;;;1.52;1.20;;;;;;;;;;5108310;28;20210;-68
2021/03/29 00:46:20;;;;;;;2.05;1.63;;;;;;;;;;5108978;28;20107;-68
2021/03/29 00:48:49;;;;;;;2.22;2.03;;;;;;;;;;5128608;27;20025;-68
2021/03/29 00:51:22;;;;;;;2.20;1.40;;;;;;;;;;5126414;27;20436;-68
2021/03/29 00:53:50;;;;;;;2.70;1.63;;;;;;;;;;5128182;27;20393;-68
2021/03/29 00:56:16;;;;;;;2.28;1.35;;;;;;;;;;5127994;27;20727;-68
2021/03/29 00:58:46;;;;;;;1.60;1.42;;;;;;;;;;5127799;27;20030;-68
2021/03/29 01:01:15;;;;;;;2.38;1.83;;;;;;;;;;5126183;28;20031;-68
2021/03/29 01:03:43;;;;;;;1.67;1.52;;;;;;;;;;5127785;28;20038;-68
2021/03/29 01:06:16;;;;;;;2.45;1.50;;;;;;;;;;5127053;28;20155;-68
2021/03/29 01:08:46;;;;;;;5.20;1.30;;;;;;;;;;5128763;28;20023;-68
2021/03/29 01:11:14;;;;;;;2.08;1.63;;;;;;;;;;5127651;28;20742;-68
2021/03/29 01:13:52;;;;;;;2.30;1.60;;;;;;;;;;5127852;28;20031;-68
2021/03/29 01:16:21;;;;;;;2.05;1.42;;;;;;;;;;5127870;28;20042;-68
2021/03/29 01:18:48;;;;;;;1.65;1.52;;;;;;;;;;5128374;28;20086;-68
2021/03/29 01:21:33;;;;;;;1.83;1.23;;;;;;;;;;5126826;28;20390;-68
2021/03/29 01:24:04;;;;;;;2.88;1.55;;;;;;;;;;5127078;28;20111;-68
2021/03/29 01:26:35;;;;;;;4.20;2.20;;;;;;;;;;5127858;28;20365;-68
2021/03/29 01:29:02;;;;;;;1.98;1.45;;;;;;;;;;5126603;28;20016;-68
2021/03/29 01:31:28;;;;;;;2.28;1.73;;;;;;;;;;5127483;28;20060;-68
2021/03/29 01:33:55;;;;;;;2.35;2.00;;;;;;;;;;5127763;28;20038;-68
2021/03/29 01:36:21;;;;;;;2.10;1.75;;;;;;;;;;5127701;28;20106;-68
2021/03/29 01:38:48;;;;;;;1.77;1.67;;;;;;;;;;5128312;28;20076;-68
2021/03/29 01:41:14;;;;;;;2.97;1.65;;;;;;;;;;5126187;28;20046;-68
2021/03/29 01:43:41;;;;;;;2.15;1.30;;;;;;;;;;5117831;28;20024;-68
2021/03/29 01:46:07;;;;;;;2.13;1.42;;;;;;;;;;5105973;28;20477;-68
2021/03/29 01:48:34;;;;;;;2.42;1.33;;;;;;;;;;5107330;28;20024;-68
2021/03/29 01:51:00;;;;;;;2.67;1.52;;;;;;;;;;5105727;28;20524;-68
2021/03/29 01:53:27;;;;;;;2.78;1.35;;;;;;;;;;5107227;28;20028;-68
2021/03/29 01:55:54;;;;;;;2.38;1.40;;;;;;;;;;5105447;28;20040;-68
2021/03/29 01:58:20;;;;;;;2.38;2.17;;;;;;;;;;5106098;28;20055;-68
2021/03/29 02:01:00;;;;;;;1.55;1.45;;;;;;;;;;5127775;27;20039;-68
2021/03/29 02:03:27;;;;;;;3.67;2.58;;;;;;;;;;5131694;27;20110;-68
2021/03/29 02:05:54;;;;;;;1.42;1.15;;;;;;;;;;5131160;27;20019;-68
2021/03/29 02:08:21;;;;;;;1.92;1.67;;;;;;;;;;5131885;27;20061;-68
2021/03/29 02:10:47;;;;;;;1.77;1.45;;;;;;;;;;5130284;27;20072;-68
2021/03/29 02:13:18;;;;;;;2.83;1.80;;;;;;;;;;5130289;27;20019;-68
2021/03/29 02:15:48;;;;;;;1.38;1.30;;;;;;;;;;5122157;27;20044;-68
2021/03/29 02:18:34;;;;;;;1.58;1.15;;;;;;;;;;5109813;28;20032;-68
2021/03/29 02:21:02;;;;;;;1.30;1.20;;;;;;;;;;5109042;28;20277;-68
2021/03/29 02:23:29;;;;;;;2.53;1.85;;;;;;;;;;5111050;28;20105;-68
2021/03/29 02:25:55;;;;;;;1.52;1.42;;;;;;;;;;5109159;28;20284;-68
2021/03/29 02:28:22;;;;;;;1.05;1.05;;;;;;;;;;5108541;28;20028;-68
2021/03/29 02:30:48;;;;;;;2.20;1.75;;;;;;;;;;5110084;28;20153;-68
2021/03/29 02:33:15;;;;;;;2.38;1.83;;;;;;;;;;5109050;28;20024;-68
2021/03/29 02:35:42;;;;;;;1.65;1.45;;;;;;;;;;5109757;28;20494;-68
2021/03/29 02:38:11;;;;;;;4.45;1.30;;;;;;;;;;5109060;28;20019;-68
2021/03/29 02:40:37;;;;;;;2.83;1.20;;;;;;;;;;5110089;28;20027;-68
2021/03/29 02:43:04;;;;;;;1.50;1.40;;;;;;;;;;5108303;28;20047;-68
2021/03/29 02:45:32;;;;;;;1.40;1.30;;;;;;;;;;5110266;28;20031;-68
2021/03/29 02:48:04;;;;;;;2.65;2.45;;;;;;;;;;5123184;27;20060;-68
2021/03/29 02:50:31;;;;;;;1.33;1.23;;;;;;;;;;5130025;27;20517;-68
2021/03/29 02:52:58;;;;;;;2.30;2.03;;;;;;;;;;5129700;27;20438;-68
2021/03/29 02:55:26;;;;;;;1.55;1.45;;;;;;;;;;5129748;27;20042;-68
2021/03/29 02:57:53;;;;;;;3.65;2.03;;;;;;;;;;5128811;27;20508;-68
2021/03/29 03:00:21;;;;;;;1.67;1.45;;;;;;;;;;5129606;27;20047;-68
2021/03/29 03:02:47;;;;;;;1.80;1.65;;;;;;;;;;5130418;27;20027;-68
2021/03/29 03:05:14;;;;;;;2.25;1.65;;;;;;;;;;5129609;27;20097;-68
2021/03/29 03:07:41;;;;;;;1.38;1.10;;;;;;;;;;5130660;27;20080;-68
2021/03/29 03:10:11;;;;;;;2.67;1.35;;;;;;;;;;5128679;27;20106;-68
2021/03/29 03:12:40;;;;;;;1.38;1.27;;;;;;;;;;5128799;27;20027;-68
2021/03/29 03:15:08;;;;;;;1.60;1.23;;;;;;;;;;5129264;27;20035;-68
2021/03/29 03:17:34;;;;;;;0.95;0.93;;;;;;;;;;5130025;27;20023;-68
2021/03/29 03:20:00;;;;;;;3.08;1.77;;;;;;;;;;5129111;27;20543;-68
2021/03/29 03:22:27;;;;;;;1.73;1.30;;;;;;;;;;5129217;27;20023;-68
2021/03/29 03:24:53;;;;;;;1.58;1.30;;;;;;;;;;5128759;27;20028;-68
2021/03/29 03:27:20;;;;;;;1.33;1.10;;;;;;;;;;5128464;27;20023;-68
2021/03/29 03:29:46;;;;;;;3.22;2.45;;;;;;;;;;5128833;27;20431;-68
2021/03/29 03:32:13;;;;;;;2.13;1.92;;;;;;;;;;5128275;27;20031;-68
2021/03/29 03:34:40;;;;;;;1.65;1.33;;;;;;;;;;5128204;27;20042;-68
2021/03/29 03:37:07;;;;;;;1.40;1.30;;;;;;;;;;5129504;27;20023;-68
2021/03/29 03:39:34;;;;;;;1.50;1.40;;;;;;;;;;5129736;27;20049;-68
2021/03/29 03:42:00;;;;;;;2.20;2.03;;;;;;;;;;5127436;27;20031;-68
2021/03/29 03:44:28;;;;;;;1.50;1.40;;;;;;;;;;5114250;27;20032;-68
2021/03/29 03:46:54;;;;;;;1.42;1.10;;;;;;;;;;5108045;28;20558;-68
2021/03/29 03:49:22;;;;;;;2.25;1.33;;;;;;;;;;5108903;28;20024;-68
2021/03/29 03:51:49;;;;;;;1.42;1.33;;;;;;;;;;5107475;28;20504;-68
2021/03/29 03:54:15;;;;;;;1.77;1.67;;;;;;;;;;5107571;28;20036;-68
2021/03/29 03:56:42;;;;;;;1.40;1.30;;;;;;;;;;5108368;28;20027;-68
2021/03/29 03:59:09;;;;;;;3.80;1.48;;;;;;;;;;5112545;27;20046;-68
2021/03/29 04:01:54;;;;;;;1.30;1.20;;;;;;;;;;5128802;27;20095;-68
2021/03/29 04:04:20;;;;;;;1.48;1.35;;;;;;;;;;5128541;27;20035;-68
2021/03/29 04:06:46;;;;;;;1.75;1.50;;;;;;;;;;5129120;27;20028;-68
2021/03/29 04:09:12;;;;;;;1.60;1.50;;;;;;;;;;5129008;27;20412;-68
2021/03/29 04:11:39;;;;;;;2.60;1.30;;;;;;;;;;5128801;27;20106;-68
2021/03/29 04:14:05;;;;;;;2.83;1.33;;;;;;;;;;5127674;27;20034;-68
2021/03/29 04:16:31;;;;;;;1.50;1.40;;;;;;;;;;5113644;27;20034;-68
2021/03/29 04:18:57;;;;;;;2.45;2.25;;;;;;;;;;5107941;28;20478;-68
2021/03/29 04:21:23;;;;;;;1.25;1.15;;;;;;;;;;5108064;28;20053;-68
2021/03/29 04:23:49;;;;;;;2.72;1.60;;;;;;;;;;5107730;28;20019;-68
2021/03/29 04:26:15;;;;;;;2.58;1.60;;;;;;;;;;5107169;28;20031;-68
2021/03/29 04:28:41;;;;;;;1.83;1.70;;;;;;;;;;5107864;28;20023;-68
2021/03/29 04:31:07;;;;;;;2.47;1.67;;;;;;;;;;5107172;28;20032;-68
2021/03/29 04:33:33;;;;;;;2.08;1.65;;;;;;;;;;5108621;28;20041;-68
2021/03/29 04:35:59;;;;;;;1.55;1.30;;;;;;;;;;5106832;28;20402;-68
2021/03/29 04:38:25;;;;;;;1.83;1.60;;;;;;;;;;5108123;28;20023;-68
2021/03/29 04:40:51;;;;;;;2.40;1.60;;;;;;;;;;5107570;28;20031;-68
2021/03/29 04:43:17;;;;;;;1.17;0.98;;;;;;;;;;5106972;28;20032;-68
2021/03/29 04:45:43;;;;;;;2.05;1.63;;;;;;;;;;5107862;28;20019;-68
2021/03/29 04:48:10;;;;;;;1.40;1.20;;;;;;;;;;5123774;27;20027;-68
2021/03/29 04:50:36;;;;;;;1.95;1.00;;;;;;;;;;5127669;27;20340;-68
2021/03/29 04:53:02;;;;;;;2.40;1.92;;;;;;;;;;5127780;27;20106;-68
2021/03/29 04:55:28;;;;;;;1.50;1.40;;;;;;;;;;5128380;27;20537;-68
2021/03/29 04:57:54;;;;;;;1.55;1.15;;;;;;;;;;5126340;27;20041;-68
2021/03/29 05:00:20;;;;;;;1.48;1.17;;;;;;;;;;5127288;27;20047;-68
2021/03/29 05:02:46;;;;;;;2.30;1.40;;;;;;;;;;5127441;28;20239;-68
2021/03/29 05:05:13;;;;;;;4.72;1.27;;;;;;;;;;5127422;28;20084;-68
2021/03/29 05:07:39;;;;;;;1.63;1.52;;;;;;;;;;5127382;28;20050;-68
2021/03/29 05:10:09;;;;;;;1.75;1.30;;;;;;;;;;5127292;28;20027;-68
2021/03/29 05:12:35;;;;;;;2.83;1.33;;;;;;;;;;5127592;28;20023;-68
2021/03/29 05:15:01;;;;;;;1.38;1.27;;;;;;;;;;5127705;28;20043;-68
2021/03/29 05:17:27;;;;;;;1.42;1.30;;;;;;;;;;5127888;28;20385;-68
2021/03/29 05:19:53;;;;;;;2.05;1.13;;;;;;;;;;5127873;28;20050;-68
2021/03/29 05:22:19;;;;;;;1.33;1.08;;;;;;;;;;5126927;28;20080;-68
2021/03/29 05:24:45;;;;;;;1.70;1.27;;;;;;;;;;5127902;28;20063;-68
2021/03/29 05:27:11;;;;;;;1.73;1.63;;;;;;;;;;5126471;28;20027;-68
2021/03/29 05:29:45;;;;;;;0.88;0.80;;;;;;;;;;5127276;28;20508;-68
2021/03/29 05:32:32;;;;;;;0.95;0.75;;;;;;;;;;5126842;28;20604;-68
2021/03/29 05:35:02;;;;;;;1.52;1.25;;;;;;;;;;5129100;27;20035;-68
2021/03/29 05:37:29;;;;;;;1.45;1.35;;;;;;;;;;5132572;27;20022;-68
2021/03/29 05:39:56;;;;;;;1.20;1.10;;;;;;;;;;5130920;27;20035;-67
2021/03/29 05:42:23;;;;;;;1.83;1.20;;;;;;;;;;5131568;27;20092;-68
2021/03/29 05:44:52;;;;;;;1.92;1.33;;;;;;;;;;5108209;27;20102;-68
2021/03/29 05:47:18;;;;;;;1.17;1.15;;;;;;;;;;5108575;28;20088;-68
2021/03/29 05:49:45;;;;;;;1.52;1.42;;;;;;;;;;5110470;28;20042;-68
2021/03/29 05:52:11;;;;;;;1.58;1.00;;;;;;;;;;5122273;27;20027;-68
2021/03/29 05:54:39;;;;;;;1.85;1.27;;;;;;;;;;5102360;28;20040;-68
2021/03/29 05:57:05;;;;;;;2.47;1.40;;;;;;;;;;5095931;28;20039;-68
2021/03/29 05:59:40;;;;;;;1.08;1.00;;;;;;;;;;5096372;28;20051;-68
2021/03/29 06:02:06;;;;;;;3.10;1.00;;;;;;;;;;5106831;28;20273;-67
2021/03/29 06:04:43;;;;;;;1.35;1.08;;;;;;;;;;5105081;28;20036;-68
2021/03/29 06:07:28;;;;;;;6.60;1.55;;;;;;;;;;5099893;28;20539;-68
2021/03/29 06:09:56;;;;;;;3.17;1.67;;;;;;;;;;5095433;28;20031;-68
2021/03/29 06:12:23;;;;;;;2.78;1.42;;;;;;;;;;5097621;28;20036;-68
2021/03/29 06:15:02;;;;;;;1.85;1.35;;;;;;;;;;5102057;28;20082;-68
2021/03/29 06:17:28;;;;;;;2.08;1.60;;;;;;;;;;5097823;28;20027;-68
2021/03/29 06:19:57;;;;;;;6.30;1.92;;;;;;;;;;5105539;28;20043;-67
2021/03/29 06:22:29;;;;;;;2.42;1.50;;;;;;;;;;5098129;28;20039;-68
2021/03/29 06:25:00;;;;;;;2.00;1.45;;;;;;;;;;5098964;28;20024;-68
2021/03/29 06:27:28;;;;;;;2.55;2.35;;;;;;;;;;5095343;28;20027;-68
2021/03/29 06:30:12;;;;;;;6.13;2.38;;;;;;;;;;5098991;28;20028;-68
2021/03/29 06:32:39;;;;;;;4.63;1.50;;;;;;;;;;5090851;28;20024;-71
2021/03/29 06:35:18;;;;;;;2.70;1.48;;;;;;;;;;5091668;28;20047;-67
2021/03/29 06:37:44;;;;;;;1.80;1.30;;;;;;;;;;5098576;28;20130;-67
2021/03/29 06:40:11;;;;;;;4.70;1.48;;;;;;;;;;5099440;28;20028;-67
2021/03/29 06:42:37;;;;;;;2.22;1.80;;;;;;;;;;5098528;28;20586;-67
2021/03/29 06:45:22;;;;;;;1.42;1.02;;;;;;;;;;5089862;28;20031;-66
2021/03/29 06:47:48;;;;;;;2.78;1.52;;;;;;;;;;5076336;28;20059;-66
2021/03/29 06:50:27;;;;;;;5.00;1.95;;;;;;;;;;5086538;28;20036;-66
2021/03/29 06:52:53;;;;;;;2.15;1.63;;;;;;;;;;5094736;28;20512;-66
2021/03/29 06:55:24;;;;;;;2.03;1.33;;;;;;;;;;5099286;28;20523;-66
2021/03/29 06:58:00;;;;;;;7.53;1.60;;;;;;;;;;5102938;28;20055;-66
2021/03/29 07:00:36;;;;;;;6.68;1.60;;;;;;;;;;5103920;28;20059;-65
2021/03/29 07:03:10;;;;;;;2.88;2.25;;;;;;;;;;5081380;28;20028;-66
2021/03/29 07:05:37;;;;;;;3.83;1.63;;;;;;;;;;5087456;28;20035;-65
2021/03/29 07:08:05;;;;;;;4.60;1.88;;;;;;;;;;5089714;27;20935;-65
2021/03/29 07:10:31;;;;;;;2.85;1.23;;;;;;;;;;5093366;28;20070;-66
2021/03/29 07:12:58;;;;;;;3.20;1.92;;;;;;;;;;5093532;28;20087;-65
2021/03/29 07:15:25;;;;;;;1.52;1.25;;;;;;;;;;5079908;28;20044;-66
2021/03/29 07:17:51;;;;;;;5.50;1.45;;;;;;;;;;5090891;28;20023;-66
2021/03/29 07:20:24;;;;;;;2.15;1.35;;;;;;;;;;5091238;28;20220;-67
2021/03/29 07:22:50;;;;;;;4.15;1.67;;;;;;;;;;5077102;28;20047;-67
2021/03/29 07:25:17;;;;;;;2.72;1.85;;;;;;;;;;5089519;28;20135;-67
2021/03/29 07:27:48;;;;;;;2.50;1.45;;;;;;;;;;5085763;28;21326;-68
2021/03/29 07:30:15;;;;;;;2.22;1.50;;;;;;;;;;5087844;27;20024;-67
2021/03/29 07:32:42;;;;;;;3.92;1.13;;;;;;;;;;5088461;28;20050;-67
2021/03/29 07:35:09;;;;;;;1.30;1.20;;;;;;;;;;5087061;27;20125;-66
2021/03/29 07:37:41;;;;;;;3.60;1.55;;;;;;;;;;5090336;28;20066;-65
2021/03/29 07:40:14;;;;;;;6.13;1.77;;;;;;;;;;5090077;28;20050;-68
2021/03/29 07:42:41;;;;;;;5.25;1.73;;;;;;;;;;5090454;28;20036;-66
2021/03/29 07:45:10;;;;;;;3.30;1.90;;;;;;;;;;5089779;28;20050;-67
2021/03/29 07:47:42;;;;;;;2.65;1.50;;;;;;;;;;5092076;28;20055;-66
2021/03/29 07:50:10;;;;;;;5.60;1.70;;;;;;;;;;5081605;28;20065;-66
2021/03/29 07:52:46;;;;;;;2.47;1.23;;;;;;;;;;5089194;28;21299;-66
2021/03/29 07:55:32;;;;;;;2.05;0.98;;;;;;;;;;5091163;28;20472;-66
2021/03/29 07:58:01;;;;;;;2.00;1.70;;;;;;;;;;5091345;28;20062;-66
2021/03/29 08:00:28;;;;;;;2.20;1.48;;;;;;;;;;5098854;27;21217;-66
2021/03/29 08:03:02;;;;;;;9.10;2.38;;;;;;;;;;5097333;27;20081;-66
2021/03/29 08:05:29;;;;;;;2.20;1.77;;;;;;;;;;5099653;27;20039;-66
2021/03/29 08:07:56;;;;;;;4.32;1.60;;;;;;;;;;5100216;27;20046;-66
2021/03/29 08:10:42;;;;;;;2.35;1.20;;;;;;;;;;5104901;27;20077;-67
2021/03/29 08:13:08;;;;;;;2.35;1.38;;;;;;;;;;5102220;27;20020;-66
2021/03/29 08:15:53;;;;;;;2.15;1.33;;;;;;;;;;5104176;27;20039;-66
2021/03/29 08:18:19;;;;;;;3.80;1.35;;;;;;;;;;5079166;28;20150;-66
2021/03/29 08:20:53;;;;;;;6.72;1.98;;;;;;;;;;5084186;27;20032;-67
2021/03/29 08:23:33;;;;;;;3.97;2.08;;;;;;;;;;5080329;27;20150;-66
2021/03/29 08:26:15;;;;;;;1.35;1.17;;;;;;;;;;5084651;27;20035;-66
2021/03/29 08:28:59;;;;;;;4.95;1.55;;;;;;;;;;5082813;27;20738;-66
2021/03/29 08:31:44;;;;;;;2.13;1.08;;;;;;;;;;5082301;27;20071;-66
2021/03/29 08:34:11;;;;;;;2.67;1.08;;;;;;;;;;5078993;28;20055;-66
2021/03/29 08:36:39;;;;;;;2.88;1.10;;;;;;;;;;5086315;27;20035;-66
2021/03/29 08:39:07;;;;;;;2.78;1.67;;;;;;;;;;5100339;27;20754;-66
2021/03/29 08:41:33;;;;;;;2.50;1.55;;;;;;;;;;5079974;27;20680;-66
2021/03/29 08:43:59;;;;;;;1.60;1.20;;;;;;;;;;5079101;27;20574;-66
2021/03/29 08:46:26;;;;;;;1.17;1.00;;;;;;;;;;5084936;27;20046;-67
2021/03/29 08:48:52;;;;;;;1.15;0.98;;;;;;;;;;5087767;27;20024;-66
2021/03/29 08:51:22;;;;;;;5.97;2.40;;;;;;;;;;5087816;28;20028;-66
2021/03/29 08:54:10;;;;;;;3.30;1.25;;;;;;;;;;5079325;27;20733;-67
2021/03/29 08:56:56;;;;;;;2.63;1.27;;;;;;;;;;5075562;27;20572;-67
2021/03/29 08:59:28;;;;;;;1.52;1.35;;;;;;;;;;5079364;27;20164;-66
2021/03/29 09:01:55;;;;;;;3.13;1.23;;;;;;;;;;5081877;28;20032;-68
2021/03/29 09:04:21;;;;;;;4.53;1.50;;;;;;;;;;5078401;28;20679;-67
2021/03/29 09:06:52;;;;;;;2.80;2.60;;;;;;;;;;5081049;28;21623;-67
2021/03/29 09:09:18;;;;;;;2.17;1.80;;;;;;;;;;5087282;27;20359;-67
2021/03/29 09:11:46;;;;;;;2.35;1.67;;;;;;;;;;5088833;27;21102;-67
2021/03/29 09:14:15;;;;;;;2.33;1.67;;;;;;;;;;5090600;27;20097;-67
2021/03/29 09:16:41;;;;;;;4.55;2.17;;;;;;;;;;5089210;27;20039;-67
2021/03/29 09:19:25;;;;;;;6.43;1.67;;;;;;;;;;5088165;27;20531;-67
2021/03/29 09:21:59;;;;;;;3.55;1.42;;;;;;;;;;5087064;27;20042;-67
2021/03/29 09:24:28;;;;;;;1.45;1.35;;;;;;;;;;5074260;28;20035;-67
2021/03/29 09:27:04;;;;;;;4.95;2.42;;;;;;;;;;5087952;27;20039;-66
2021/03/29 09:29:37;;;;;;;3.53;1.10;;;;;;;;;;5090489;27;20035;-67
2021/03/29 09:32:03;;;;;;;6.72;2.10;;;;;;;;;;5083797;27;21137;-67
2021/03/29 09:34:30;;;;;;;1.55;1.10;;;;;;;;;;5081631;27;20043;-67
2021/03/29 09:36:57;;;;;;;1.73;1.08;;;;;;;;;;5092244;27;20032;-66
2021/03/29 09:39:23;;;;;;;1.50;1.20;;;;;;;;;;5088344;27;20425;-66
2021/03/29 09:41:50;;;;;;;1.70;1.15;;;;;;;;;;5085564;27;20045;-67
2021/03/29 09:44:17;;;;;;;2.00;1.25;;;;;;;;;;5078473;27;20059;-66
2021/03/29 09:46:43;;;;;;;1.33;1.20;;;;;;;;;;5088947;27;20024;-66
2021/03/29 09:49:16;;;;;;;1.83;1.30;;;;;;;;;;5082661;27;20044;-67
2021/03/29 09:51:44;;;;;;;6.30;1.10;;;;;;;;;;5080949;27;20151;-67
2021/03/29 09:54:22;;;;;;;4.28;1.10;;;;;;;;;;5083341;27;20050;-67
2021/03/29 09:56:48;;;;;;;3.35;1.45;;;;;;;;;;5090790;27;20120;-66
2021/03/29 09:59:14;;;;;;;1.95;1.40;;;;;;;;;;5087099;27;20235;-66
2021/03/29 10:01:44;;;;;;;2.38;1.77;;;;;;;;;;5080044;28;20027;-67
2021/03/29 10:04:13;;;;;;;3.95;1.10;;;;;;;;;;5091642;28;20047;-66
2021/03/29 10:06:50;;;;;;;3.55;1.10;;;;;;;;;;5100089;27;20043;-67
2021/03/29 10:09:16;;;;;;;1.42;0.88;;;;;;;;;;5100632;27;20886;-67
2021/03/29 10:11:46;;;;;;;4.82;1.45;;;;;;;;;;5088171;28;20884;-67
2021/03/29 10:14:15;;;;;;;3.22;1.08;;;;;;;;;;5087587;28;21294;-67
2021/03/29 10:16:51;;;;;;;1.55;1.42;;;;;;;;;;5091830;28;20096;-67
2021/03/29 10:19:20;;;;;;;3.47;1.10;;;;;;;;;;5087145;28;20079;-66
2021/03/29 10:22:19;;;;;;;3.67;1.00;;;;;;;;;;5095507;28;20038;-67
2021/03/29 10:24:57;;;;;;;2.45;1.10;;;;;;;;;;5036462;28;20050;-67
2021/03/29 10:27:24;;;;;;;4.72;1.75;;;;;;;;;;5083134;28;20150;-67
2021/03/29 10:29:50;;;;;;;1.60;1.00;;;;;;;;;;5098382;27;20063;-68
2021/03/29 10:32:20;;;;;;;4.68;1.42;;;;;;;;;;5098896;28;21122;-67
2021/03/29 10:34:47;;;;;;;6.13;2.58;;;;;;;;;;5100187;28;20039;-67
2021/03/29 10:37:24;;;;;;;5.28;1.25;;;;;;;;;;5099825;28;20130;-67
2021/03/29 10:39:54;;;;;;;1.27;1.10;;;;;;;;;;5102244;28;20032;-67
2021/03/29 10:42:21;;;;;;;1.42;1.23;;;;;;;;;;5099048;28;20043;-67
2021/03/29 10:44:48;;;;;;;3.33;1.70;;;;;;;;;;5101485;28;20165;-67
2021/03/29 10:47:14;;;;;;;2.15;1.38;;;;;;;;;;5101651;28;20565;-67
2021/03/29 10:49:40;;;;;;;3.92;1.15;;;;;;;;;;5102354;28;20039;-67
2021/03/29 10:52:07;;;;;;;2.45;1.50;;;;;;;;;;5099390;28;20114;-67
2021/03/29 10:54:33;;;;;;;5.65;2.22;;;;;;;;;;5100628;28;20035;-66
2021/03/29 10:56:59;;;;;;;3.42;2.35;;;;;;;;;;5102196;28;20036;-66
2021/03/29 10:59:25;;;;;;;5.32;2.53;;;;;;;;;;5103743;27;20637;-67
2021/03/29 11:01:51;;;;;;;3.70;2.35;;;;;;;;;;5116186;27;20038;-66
2021/03/29 11:04:17;;;;;;;3.05;2.17;;;;;;;;;;5082032;27;20124;-66
2021/03/29 11:06:43;;;;;;;2.92;1.95;;;;;;;;;;5126051;27;20151;-66
2021/03/29 11:09:09;;;;;;;3.45;2.55;;;;;;;;;;5113458;27;20035;-66
2021/03/29 11:11:35;;;;;;;2.95;2.65;;;;;;;;;;5124516;27;20026;-66
2021/03/29 11:14:02;;;;;;;4.28;2.78;;;;;;;;;;5131297;27;20034;-66
2021/03/29 11:16:29;;;;;;;5.82;2.42;;;;;;;;;;5116336;27;20419;-66
2021/03/29 11:18:55;;;;;;;2.72;2.10;;;;;;;;;;5119481;27;20424;-67
2021/03/29 11:21:21;;;;;;;3.80;2.38;;;;;;;;;;5131753;27;20053;-67
2021/03/29 11:23:47;;;;;;;2.00;1.80;;;;;;;;;;5119246;27;20027;-67
2021/03/29 11:26:13;;;;;;;6.38;2.05;;;;;;;;;;5114081;27;20878;-67
2021/03/29 11:28:40;;;;;;;2.50;1.70;;;;;;;;;;5109497;27;20731;-67
2021/03/29 11:31:06;;;;;;;5.57;2.53;;;;;;;;;;5112814;27;20508;-67
2021/03/29 11:33:32;;;;;;;3.35;2.63;;;;;;;;;;5111797;27;20031;-67
2021/03/29 11:35:58;;;;;;;4.50;2.45;;;;;;;;;;5098205;27;20035;-68
2021/03/29 11:38:24;;;;;;;4.55;2.72;;;;;;;;;;5115316;27;20050;-67
2021/03/29 11:40:50;;;;;;;4.60;2.70;;;;;;;;;;5101373;27;20038;-67
2021/03/29 11:43:16;;;;;;;4.72;2.85;;;;;;;;;;5103142;27;20043;-67
2021/03/29 11:45:43;;;;;;;5.80;2.60;;;;;;;;;;5123463;27;20061;-67
2021/03/29 11:48:09;;;;;;;4.47;2.25;;;;;;;;;;5116468;27;20057;-67
2021/03/29 11:50:35;;;;;;;9.25;2.33;;;;;;;;;;5112468;27;20138;-67
2021/03/29 11:53:01;;;;;;;4.00;2.50;;;;;;;;;;5114182;27;20796;-67
2021/03/29 11:55:28;;;;;;;7.05;2.85;;;;;;;;;;5109862;27;20039;-67
2021/03/29 11:57:55;;;;;;;2.67;1.83;;;;;;;;;;5097329;27;20050;-67
2021/03/29 12:00:26;;;;;;;3.03;2.60;;;;;;;;;;5094502;27;20055;-68
2021/03/29 12:03:44;;;;;;;5.93;3.00;;;;;;;;;;5095576;27;20047;-67
2021/03/29 12:05:44;;;;;;;3.47;1.98;;;;;;;;;;5112247;27;20031;-67
2021/03/29 12:13:36;;;;;;;4.50;2.42;;;;;;;;;;5110306;27;20073;-67
2021/03/29 12:16:04;;;;;;;6.18;1.90;;;;;;;;;;5118238;27;20062;-67
2021/03/29 12:18:41;;;;;;;6.80;2.83;;;;;;;;;;5113388;27;20536;-68
2021/03/29 12:21:09;;;;;;;8.10;3.78;;;;;;;;;;5104876;27;20060;-68
2021/03/29 12:23:36;;;;;;;4.18;2.35;;;;;;;;;;5105287;27;20608;-68
2021/03/29 12:26:03;;;;;;;5.38;3.35;;;;;;;;;;5106773;27;20038;-67
2021/03/29 12:28:31;;;;;;;4.85;2.47;;;;;;;;;;5114816;27;20030;-68
2021/03/29 12:30:58;;;;;;;4.38;2.88;;;;;;;;;;5112904;27;20074;-67
2021/03/29 12:33:24;;;;;;;4.05;2.47;;;;;;;;;;5106937;27;20043;-67
2021/03/29 12:35:54;;;;;;;3.90;2.92;;;;;;;;;;5110833;27;20034;-68
2021/03/29 12:38:20;;;;;;;2.85;2.30;;;;;;;;;;5114094;27;20020;-68
2021/03/29 12:40:47;;;;;;;5.45;3.55;;;;;;;;;;5118543;27;20057;-68
2021/03/29 12:43:30;;;;;;;3.33;2.40;;;;;;;;;;5118167;27;20212;-68
2021/03/29 12:45:56;;;;;;;3.53;2.38;;;;;;;;;;5114851;27;20027;-68
2021/03/29 12:48:22;;;;;;;3.38;2.40;;;;;;;;;;5132268;27;20035;-68
2021/03/29 12:50:51;;;;;;;4.85;3.05;;;;;;;;;;5114217;27;20090;-68
2021/03/29 12:53:18;;;;;;;3.22;2.45;;;;;;;;;;5111833;27;20059;-67
2021/03/29 12:55:44;;;;;;;3.65;2.78;;;;;;;;;;5120471;27;20091;-68
2021/03/29 12:58:10;;;;;;;6.22;2.60;;;;;;;;;;5109506;27;20031;-68
2021/03/29 13:00:36;;;;;;;4.82;2.75;;;;;;;;;;5115378;27;20570;-68
2021/03/29 13:03:02;;;;;;;7.28;2.33;;;;;;;;;;5106546;27;21522;-67
2021/03/29 13:05:37;;;;;;;4.80;2.40;;;;;;;;;;5112292;27;20031;-68
2021/03/29 13:08:08;;;;;;;4.15;2.17;;;;;;;;;;5121438;27;20035;-67
2021/03/29 13:13:20;;;;;;;5.38;2.97;;;;;;;;;;5107015;27;20100;-68
2021/03/29 13:15:46;;;;;;;6.07;2.88;;;;;;;;;;5126576;27;20123;-71
2021/03/29 13:18:16;;;;;;;4.70;2.25;;;;;;;;;;5121808;27;20923;-68
2021/03/29 13:20:42;;;;;;;4.13;2.70;;;;;;;;;;5107319;27;20035;-68
2021/03/29 13:23:10;;;;;;;9.88;3.28;;;;;;;;;;5101320;27;20029;-68
2021/03/29 13:25:36;;;;;;;8.18;2.97;;;;;;;;;;5120713;27;20035;-68
2021/03/29 13:28:05;;;;;;;5.97;3.33;;;;;;;;;;5112373;28;20023;-68
2021/03/29 13:30:32;;;;;;;9.60;3.90;;;;;;;;;;5109708;27;20478;-73
2021/03/29 13:33:02;;;;;;;4.25;2.83;;;;;;;;;;5122771;27;20628;-69
2021/03/29 13:35:28;;;;;;;9.75;2.42;;;;;;;;;;5103829;27;20031;-68
2021/03/29 13:37:55;;;;;;;4.03;2.75;;;;;;;;;;5105744;27;20037;-68
2021/03/29 13:40:22;;;;;;;4.10;3.08;;;;;;;;;;5121882;27;20023;-68
2021/03/29 13:42:51;;;;;;;8.02;3.25;;;;;;;;;;5108063;27;20080;-67
2021/03/29 13:45:17;;;;;;;5.07;3.75;;;;;;;;;;5111578;27;20152;-67
2021/03/29 13:47:44;;;;;;;4.50;2.95;;;;;;;;;;5114230;27;20027;-70
2021/03/29 13:50:11;;;;;;;2.80;2.22;;;;;;;;;;5117981;27;20027;-67
2021/03/29 13:52:38;;;;;;;5.15;2.25;;;;;;;;;;5117083;27;21280;-67
2021/03/29 13:55:04;;;;;;;5.03;2.95;;;;;;;;;;5121395;27;20038;-67
2021/03/29 13:57:30;;;;;;;3.55;1.92;;;;;;;;;;5126051;27;20118;-67
2021/03/29 13:59:56;;;;;;;7.53;3.22;;;;;;;;;;5107027;27;20533;-66
2021/03/29 14:02:23;;;;;;;4.93;3.00;;;;;;;;;;5114163;27;20799;-67
2021/03/29 14:04:49;;;;;;;4.10;2.80;;;;;;;;;;5119205;27;20433;-67
2021/03/29 14:07:17;;;;;;;5.32;2.35;;;;;;;;;;5118534;27;20028;-68
2021/03/29 14:09:43;;;;;;;6.35;2.55;;;;;;;;;;5124805;27;20050;-67
2021/03/29 14:12:10;;;;;;;4.15;2.20;;;;;;;;;;5128943;27;20083;-67
2021/03/29 14:14:36;;;;;;;4.38;2.58;;;;;;;;;;5124941;27;20168;-67
2021/03/29 14:17:02;;;;;;;5.57;3.22;;;;;;;;;;5127580;27;20049;-66
2021/03/29 14:19:29;;;;;;;2.90;2.35;;;;;;;;;;5129457;27;20053;-68
2021/03/29 14:21:56;;;;;;;4.95;3.30;;;;;;;;;;5116869;27;20032;-66
2021/03/29 14:24:22;;;;;;;4.57;4.18;;;;;;;;;;5113630;27;21039;-68
2021/03/29 14:26:49;;;;;;;4.20;3.75;;;;;;;;;;5115544;27;20032;-67
2021/03/29 14:29:15;;;;;;;6.65;4.05;;;;;;;;;;5115278;27;20604;-67
2021/03/29 14:31:42;;;;;;;6.10;3.38;;;;;;;;;;5127179;27;20579;-67
2021/03/29 14:34:12;;;;;;;8.65;3.35;;;;;;;;;;5116601;27;20102;-67
2021/03/29 14:37:05;;;;;;;4.53;3.20;;;;;;;;;;5116537;27;20038;-67
2021/03/29 14:39:35;;;;;;;9.25;3.45;;;;;;;;;;5117483;27;20050;-67
2021/03/29 14:42:18;;;;;;;3.60;2.70;;;;;;;;;;5117705;27;20031;-67
2021/03/29 14:44:45;;;;;;;6.33;3.67;;;;;;;;;;5112600;27;20049;-67
2021/03/29 14:47:12;;;;;;;6.60;4.07;;;;;;;;;;5114837;27;20031;-67
2021/03/29 14:49:39;;;;;;;5.72;2.95;;;;;;;;;;5114150;27;20033;-67
2021/03/29 14:52:07;;;;;;;11.00;3.92;;;;;;;;;;5114008;27;20573;-67
2021/03/29 14:54:34;;;;;;;8.38;4.20;;;;;;;;;;5112608;27;20038;-67
2021/03/29 14:57:00;;;;;;;7.68;3.97;;;;;;;;;;5132568;27;20030;-70
2021/03/29 14:59:26;;;;;;;3.80;3.38;;;;;;;;;;5113882;27;20040;-67
2021/03/29 15:01:53;;;;;;;6.13;4.25;;;;;;;;;;5129796;27;20527;-67